createdAt,value
2022-10-11T00:02:06.154Z,100.00
2022-10-11T00:04:54.143Z,100.00
2022-10-11T00:07:44.419Z,100.00
2022-10-11T00:13:14.075Z,100.00
2022-10-11T00:16:05.399Z,100.00
2022-10-11T00:18:55.679Z,100.00
2022-10-11T00:21:45.260Z,100.00
2022-10-11T00:24:33.628Z,100.00
2022-10-11T00:30:22.981Z,100.00
2022-10-11T00:36:02.358Z,100.00
2022-10-11T00:41:34.054Z,100.00
2022-10-11T00:47:12.007Z,100.00
2022-10-11T00:50:02.884Z,100.00
2022-10-11T00:55:45.488Z,100.00
2022-10-11T01:01:16.451Z,100.00
2022-10-11T01:04:05.423Z,100.00
2022-10-11T01:06:54.372Z,100.00
2022-10-11T01:15:32.011Z,100.00
2022-10-11T01:18:23.100Z,100.00
2022-10-11T01:24:19.984Z,100.00
2022-10-11T01:27:32.533Z,100.00
2022-10-11T01:33:27.171Z,100.00
2022-10-11T01:39:11.827Z,100.00
2022-10-11T01:42:02.187Z,100.00
2022-10-11T01:47:31.580Z,100.00
2022-10-11T01:53:50.006Z,100.00
2022-10-11T01:59:50.056Z,100.00
2022-10-11T02:05:34.753Z,100.00
2022-10-11T02:13:52.966Z,100.00
2022-10-11T02:19:29.917Z,100.00
2022-10-11T02:25:17.176Z,100.00
2022-10-11T02:30:56.284Z,100.00
2022-10-11T02:33:46.845Z,100.00
2022-10-11T02:39:29.030Z,100.00
2022-10-11T02:45:10.847Z,100.00
2022-10-11T02:50:51.713Z,100.00
2022-10-11T02:56:31.198Z,100.00
2022-10-11T02:59:25.955Z,100.00
2022-10-11T03:04:56.993Z,100.00
2022-10-11T03:10:35.628Z,100.00
2022-10-11T03:13:25.184Z,100.00
2022-10-11T03:19:05.067Z,100.00
2022-10-11T03:24:35.284Z,100.00
2022-10-11T03:30:16.198Z,100.00
2022-10-11T03:35:52.841Z,100.00
2022-10-11T03:41:28.655Z,100.00
2022-10-11T03:47:28.235Z,100.00
2022-10-11T03:50:17.669Z,100.00
2022-10-11T03:55:55.621Z,100.00
2022-10-11T04:01:45.569Z,100.00
2022-10-11T04:07:22.389Z,100.00
2022-10-11T04:13:07.171Z,100.00
2022-10-11T04:18:44.562Z,100.00
2022-10-11T04:24:23.288Z,100.00
2022-10-11T04:30:15.159Z,100.00
2022-10-11T04:35:56.410Z,100.00
2022-10-11T04:41:31.740Z,100.00
2022-10-11T04:47:08.003Z,100.00
2022-10-11T04:52:44.104Z,100.00
2022-10-11T04:58:21.845Z,100.00
2022-10-11T05:01:10.374Z,100.00
2022-10-11T05:03:59.768Z,100.00
2022-10-11T05:06:49.487Z,100.00
2022-10-11T05:12:25.158Z,100.00
2022-10-11T05:15:13.527Z,100.00
2022-10-11T05:20:46.853Z,100.00
2022-10-11T05:26:27.509Z,100.00
2022-10-11T05:29:15.785Z,100.00
2022-10-11T05:32:08.849Z,100.00
2022-10-11T05:34:59.470Z,100.00
2022-10-11T05:37:49.552Z,100.00
2022-10-11T05:40:39.634Z,100.00
2022-10-11T05:43:28.356Z,100.00
2022-10-11T05:46:17.457Z,100.00
2022-10-11T05:49:05.862Z,100.00
2022-10-11T05:51:54.256Z,100.00
2022-10-11T05:57:33.366Z,100.00
2022-10-11T06:00:26.158Z,100.00
2022-10-11T06:06:07.320Z,100.00
2022-10-11T06:11:42.491Z,100.00
2022-10-11T06:14:31.116Z,100.00
2022-10-11T06:22:54.219Z,100.00
2022-10-11T06:25:42.665Z,100.00
2022-10-11T06:31:21.985Z,100.00
2022-10-11T06:36:59.606Z,100.00
2022-10-11T06:39:48.204Z,100.00
2022-10-11T06:42:39.204Z,100.00
2022-10-11T06:48:14.978Z,100.00
2022-10-11T06:51:07.305Z,100.00
2022-10-11T06:56:45.639Z,100.00
2022-10-11T07:02:21.396Z,100.00
2022-10-11T07:07:52.515Z,100.00
2022-10-11T07:13:25.302Z,100.00
2022-10-11T07:19:15.591Z,100.00
2022-10-11T07:24:51.114Z,100.00
2022-10-11T07:30:25.056Z,100.00
2022-10-11T07:39:04.769Z,99.79
2022-10-11T07:44:43.467Z,98.23
2022-10-11T07:50:19.628Z,97.13
2022-10-11T07:56:03.411Z,93.26
2022-10-11T08:01:46.598Z,91.35
2022-10-11T08:07:23.847Z,89.91
2022-10-11T08:13:04.276Z,88.61
2022-10-11T08:18:39.541Z,86.44
2022-10-11T08:24:20.876Z,86.13
2022-10-11T08:29:57.539Z,88.54
2022-10-11T08:32:45.782Z,85.89
2022-10-11T08:38:33.236Z,86.40
2022-10-11T08:44:41.553Z,85.17
2022-10-11T08:50:16.991Z,87.09
2022-10-11T08:56:01.187Z,84.32
2022-10-11T08:58:52.595Z,85.42
2022-10-11T09:01:44.163Z,85.52
2022-10-11T09:04:32.908Z,84.87
2022-10-11T09:07:26.400Z,83.96
2022-10-11T09:10:36.174Z,85.04
2022-10-11T09:13:37.014Z,84.80
2022-10-11T09:16:29.891Z,83.13
2022-10-11T09:22:15.808Z,79.21
2022-10-11T09:25:19.215Z,79.83
2022-10-11T09:31:03.729Z,80.21
2022-10-11T09:33:53.548Z,79.92
2022-10-11T09:45:00.609Z,79.24
2022-10-11T09:50:39.754Z,76.77
2022-10-11T09:56:31.335Z,76.25
2022-10-11T09:59:31.614Z,76.53
2022-10-11T10:02:24.707Z,75.42
2022-10-11T10:05:19.541Z,76.00
2022-10-11T10:11:06.739Z,76.10
2022-10-11T10:16:43.814Z,76.64
2022-10-11T10:25:11.851Z,75.35
2022-10-11T10:33:38.036Z,75.39
2022-10-11T10:36:29.778Z,75.47
2022-10-11T10:39:21.786Z,75.20
2022-10-11T10:45:02.273Z,73.53
2022-10-11T10:48:00.356Z,73.94
2022-10-11T10:50:55.756Z,73.12
2022-10-11T10:53:46.294Z,72.44
2022-10-11T10:56:38.984Z,72.25
2022-10-11T11:05:28.196Z,69.82
2022-10-11T11:08:22.420Z,69.11
2022-10-11T11:14:25.459Z,70.16
2022-10-11T11:20:21.515Z,67.20
2022-10-11T11:29:08.055Z,67.51
2022-10-11T11:35:09.527Z,68.75
2022-10-11T11:38:06.512Z,70.40
2022-10-11T11:40:56.941Z,70.05
2022-10-11T11:43:54.430Z,69.73
2022-10-11T11:49:35.910Z,69.29
2022-10-11T11:55:15.107Z,66.10
2022-10-11T12:00:58.722Z,67.08
2022-10-11T12:03:49.019Z,67.16
2022-10-11T12:09:24.698Z,66.84
2022-10-11T12:15:25.341Z,66.23
2022-10-11T12:21:09.322Z,66.45
2022-10-11T12:26:46.589Z,65.46
2022-10-11T12:32:59.637Z,64.91
2022-10-11T12:39:35.363Z,65.71
2022-10-11T12:48:45.962Z,64.71
2022-10-11T12:54:38.331Z,65.24
2022-10-11T13:00:43.665Z,66.04
2022-10-11T13:06:19.358Z,66.73
2022-10-11T13:14:44.713Z,65.05
2022-10-11T13:20:27.806Z,64.86
2022-10-11T13:26:11.126Z,63.50
2022-10-11T13:31:43.002Z,65.74
2022-10-11T13:34:35.270Z,66.59
2022-10-11T13:40:07.911Z,66.58
2022-10-11T13:45:58.412Z,65.55
2022-10-11T13:48:46.995Z,64.41
2022-10-11T13:51:37.460Z,65.05
2022-10-11T13:54:26.151Z,64.49
2022-10-11T14:00:11.403Z,66.29
2022-10-11T14:03:05.270Z,66.60
2022-10-11T14:05:58.022Z,67.27
2022-10-11T14:08:47.875Z,66.10
2022-10-11T14:11:38.290Z,66.87
2022-10-11T14:17:41.790Z,66.05
2022-10-11T14:20:38.435Z,65.48
2022-10-11T14:26:18.672Z,66.39
2022-10-11T14:31:49.458Z,65.08
2022-10-11T14:34:37.732Z,66.34
2022-10-11T14:40:21.488Z,66.57
2022-10-11T14:43:09.566Z,65.43
2022-10-11T14:48:56.508Z,65.26
2022-10-11T14:54:31.301Z,66.11
2022-10-11T14:57:19.795Z,66.63
2022-10-11T15:00:13.677Z,66.32
2022-10-11T15:05:50.241Z,67.55
2022-10-11T15:11:23.786Z,68.13
2022-10-11T15:14:11.990Z,68.29
2022-10-11T15:17:02.572Z,68.55
2022-10-11T15:22:44.389Z,70.43
2022-10-11T15:31:05.277Z,72.41
2022-10-11T15:33:53.602Z,72.72
2022-10-11T15:39:32.504Z,73.63
2022-10-11T15:45:18.982Z,73.75
2022-10-11T15:50:51.983Z,75.43
2022-10-11T15:56:24.986Z,75.30
2022-10-11T16:02:00.611Z,75.21
2022-10-11T16:04:49.729Z,75.10
2022-10-11T16:07:38.384Z,75.75
2022-10-11T16:13:07.721Z,77.15
2022-10-11T16:15:56.363Z,78.17
2022-10-11T16:18:44.899Z,78.92
2022-10-11T16:24:28.107Z,80.40
2022-10-11T16:30:23.126Z,81.70
2022-10-11T16:36:30.262Z,83.57
2022-10-11T16:42:02.659Z,84.83
2022-10-11T16:44:52.979Z,85.96
2022-10-11T16:47:41.928Z,86.49
2022-10-11T16:53:15.528Z,87.64
2022-10-11T16:56:08.210Z,87.19
2022-10-11T17:01:57.736Z,89.67
2022-10-11T17:07:25.875Z,89.35
2022-10-11T17:10:17.088Z,89.97
2022-10-11T17:13:05.259Z,90.31
2022-10-11T17:15:53.920Z,90.74
2022-10-11T17:24:06.957Z,91.84
2022-10-11T17:26:56.015Z,92.39
2022-10-11T17:29:44.392Z,91.68
2022-10-11T17:35:12.941Z,91.97
2022-10-11T17:38:05.916Z,92.01
2022-10-11T17:43:48.676Z,93.04
2022-10-11T17:49:25.814Z,93.25
2022-10-11T17:55:00.198Z,93.63
2022-10-11T17:57:49.577Z,94.83
2022-10-11T18:00:38.242Z,94.57
2022-10-11T18:13:35.697Z,94.35
2022-10-11T18:16:26.802Z,94.33
2022-10-11T18:22:07.152Z,94.30
2022-10-11T18:24:54.449Z,94.39
2022-10-11T18:30:29.872Z,95.49
2022-10-11T18:36:04.942Z,95.34
2022-10-11T18:38:56.161Z,96.02
2022-10-11T18:44:33.100Z,96.63
2022-10-11T18:50:11.343Z,96.91
2022-10-11T18:53:00.566Z,96.91
2022-10-11T18:55:50.021Z,97.42
2022-10-11T19:01:32.791Z,97.57
2022-10-11T19:07:06.172Z,96.54
2022-10-11T19:09:55.848Z,97.45
2022-10-11T19:15:37.296Z,97.79
2022-10-11T19:18:29.511Z,97.77
2022-10-11T19:24:09.435Z,96.62
2022-10-11T19:29:39.138Z,96.74
2022-10-11T19:41:18.203Z,98.94
2022-10-11T19:46:51.950Z,99.69
2022-10-11T19:52:22.909Z,100.00
2022-10-11T19:58:25.805Z,100.00
2022-10-11T20:01:17.837Z,100.00
2022-10-11T20:07:14.741Z,100.00
2022-10-11T20:10:05.577Z,100.00
2022-10-11T20:15:41.059Z,100.00
2022-10-11T20:18:31.285Z,100.00
2022-10-11T20:24:13.888Z,100.00
2022-10-11T20:30:04.265Z,100.00
2022-10-11T20:32:57.704Z,100.00
2022-10-11T20:35:46.796Z,100.00
2022-10-11T20:41:28.785Z,100.00
2022-10-11T20:47:17.421Z,100.00
2022-10-11T20:50:10.154Z,100.00
2022-10-11T20:52:59.292Z,100.00
2022-10-11T20:58:41.762Z,100.00
2022-10-11T21:01:32.200Z,100.00
2022-10-11T21:07:23.918Z,100.00
2022-10-11T21:13:12.258Z,100.00
2022-10-11T21:16:06.725Z,100.00
2022-10-11T21:18:56.670Z,100.00
2022-10-11T21:24:32.217Z,100.00
2022-10-11T21:30:10.242Z,100.00
2022-10-11T21:35:49.205Z,100.00
2022-10-11T21:44:11.820Z,100.00
2022-10-11T21:49:48.589Z,100.00
2022-10-11T21:52:37.110Z,100.00
2022-10-11T21:55:26.835Z,100.00
2022-10-11T21:58:15.866Z,100.00
2022-10-11T22:04:05.545Z,100.00
2022-10-11T22:09:43.198Z,100.00
2022-10-11T22:12:31.480Z,100.00
2022-10-11T22:18:08.562Z,100.00
2022-10-11T22:23:51.716Z,100.00
2022-10-11T22:29:34.222Z,100.00
2022-10-11T22:37:45.912Z,100.00
2022-10-11T22:43:24.948Z,100.00
2022-10-11T22:48:58.781Z,100.00
2022-10-11T22:54:34.437Z,100.00
2022-10-11T23:00:06.888Z,100.00
2022-10-11T23:05:59.172Z,100.00
2022-10-11T23:08:47.203Z,100.00
2022-10-11T23:14:23.918Z,100.00
2022-10-11T23:20:17.447Z,100.00
2022-10-11T23:25:50.716Z,100.00
2022-10-11T23:31:28.058Z,100.00
2022-10-11T23:37:06.362Z,100.00
2022-10-11T23:42:41.182Z,100.00
2022-10-11T23:48:11.664Z,100.00
2022-10-11T23:53:45.105Z,100.00
2022-10-11T23:59:19.460Z,100.00
